Time;durP1;ratioP1;P1;durP2;ratioP2;P2;SDS_P1;SDS_P2;PMS_P1;PMS_P2;Temp;Humidity;BMP_temperature;BMP_pressure;BME280_temperature;BME280_humidity;BME280_pressure;Samples;Min_cycle;Max_cycle;Signal;HPM_P1;HPM_P2
2022/06/22 00:00:02;;;;;;;;;;;;;;;23.83;41.86;100784.56;2082888;28;986;-55
2022/06/22 00:01:12;;;;;;;;;;;;;;;23.83;41.79;100781.84;2082777;28;796;-54
2022/06/22 00:02:25;;;;;;;;;;;;;;;23.82;41.94;100779.25;2082905;28;867;-54
2022/06/22 00:03:25;;;;;;;;;;;;;;;23.84;41.45;100777.34;2082930;28;1009;-55
2022/06/22 00:04:27;;;;;;;;;;;;;;;23.83;41.52;100779.16;2082785;28;787;-55
2022/06/22 00:05:57;;;;;;;;;;;;;;;23.84;41.84;100778.19;2082848;28;1057;-55
2022/06/22 00:06:59;;;;;;;;;;;;;;;23.86;41.82;100771.84;2065468;28;1350;-55
2022/06/22 00:08:02;;;;;;;;;;;;;;;23.84;41.77;100780.03;2065055;28;969;-55
2022/06/22 00:09:03;;;;;;;;;;;;;;;23.82;42.09;100774.69;2065556;28;1101;-55
2022/06/22 00:10:07;;;;;;;;;;;;;;;23.82;41.50;100779.25;2057553;28;959;-55
2022/06/22 00:11:12;;;;;;;;;;;;;;;23.82;41.92;100774.69;2057844;28;1061;-55
2022/06/22 00:12:38;;;;;;;;;;;;;;;23.82;42.08;100777.41;2066215;28;946;-55
2022/06/22 00:13:44;;;;;;;;;;;;;;;23.79;41.44;100774.84;2056872;28;1241;-55
2022/06/22 00:14:46;;;;;;;;;;;;;;;23.80;41.80;100779.28;2059596;28;808;-55
2022/06/22 00:16:06;;;;;;;;;;;;;;;23.79;42.15;100772.13;2067003;28;1961;-55
2022/06/22 00:17:15;;;;;;;;;;;;;;;23.78;41.42;100781.19;2066738;28;1047;-55
2022/06/22 00:18:21;;;;;;;;;;;;;;;23.76;41.85;100785.81;2066966;28;963;-55
2022/06/22 00:19:33;;;;;;;;;;;;;;;23.77;41.85;100775.88;2067071;28;880;-55
2022/06/22 00:20:33;;;;;;;;;;;;;;;23.79;42.04;100779.38;2067013;28;855;-55
2022/06/22 00:21:35;;;;;;;;;;;;;;;23.80;41.87;100781.13;2067003;28;1066;-55
2022/06/22 00:22:45;;;;;;;;;;;;;;;23.79;41.53;100784.78;2066948;28;752;-55
2022/06/22 00:23:47;;;;;;;;;;;;;;;23.79;41.80;100777.53;2067118;28;863;-55
2022/06/22 00:24:58;;;;;;;;;;;;;;;23.78;42.05;100783.91;2066896;28;1017;-55
2022/06/22 00:26:06;;;;;;;;;;;;;;;23.78;41.38;100781.19;2066861;28;1012;-55
2022/06/22 00:27:12;;;;;;;;;;;;;;;23.76;41.92;100776.81;2066878;28;1022;-55
2022/06/22 00:28:25;;;;;;;;;;;;;;;23.73;41.76;100775.13;2066862;28;1339;-55
2022/06/22 00:29:33;;;;;;;;;;;;;;;23.70;41.59;100786.09;2066978;28;848;-55
2022/06/22 00:30:44;;;;;;;;;;;;;;;23.70;41.77;100777.97;2066949;28;918;-55
2022/06/22 00:31:57;;;;;;;;;;;;;;;23.66;42.08;100787.19;2066964;28;1178;-55
2022/06/22 00:32:59;;;;;;;;;;;;;;;23.61;41.83;100775.69;2066907;28;879;-55
2022/06/22 00:34:08;;;;;;;;;;;;;;;23.58;42.64;100778.56;2066374;28;1044;-55
2022/06/22 00:35:27;;;;;;;;;;;;;;;23.52;42.39;100777.03;2066799;28;978;-55
2022/06/22 00:36:32;;;;;;;;;;;;;;;23.52;42.42;100771.63;2066895;28;887;-55
2022/06/22 00:37:36;;;;;;;;;;;;;;;23.51;42.07;100772.56;2066784;28;1231;-55
2022/06/22 00:38:36;;;;;;;;;;;;;;;23.50;42.70;100769.00;2066842;28;1037;-55
2022/06/22 00:39:38;;;;;;;;;;;;;;;23.48;42.88;100770.00;2066905;28;982;-55
2022/06/22 00:40:38;;;;;;;;;;;;;;;23.48;42.53;100768.19;2066807;28;768;-54
2022/06/22 00:41:39;;;;;;;;;;;;;;;23.50;42.53;100773.53;2066895;28;930;-55
2022/06/22 00:42:42;;;;;;;;;;;;;;;23.48;42.95;100768.19;2066419;28;1088;-55
2022/06/22 00:43:42;;;;;;;;;;;;;;;23.51;42.14;100770.75;2069141;28;1037;-55
2022/06/22 00:44:48;;;;;;;;;;;;;;;23.54;42.44;100773.31;2083970;28;1053;-55
2022/06/22 00:45:49;;;;;;;;;;;;;;;23.54;42.61;100769.72;2084093;28;855;-55
2022/06/22 00:46:56;;;;;;;;;;;;;;;23.54;42.67;100775.13;2083985;28;831;-55
2022/06/22 00:47:59;;;;;;;;;;;;;;;23.54;42.31;100775.13;2084071;28;796;-55
2022/06/22 00:49:07;;;;;;;;;;;;;;;23.53;42.64;100774.28;2083949;28;767;-55
2022/06/22 00:50:18;;;;;;;;;;;;;;;23.55;42.22;100768.78;2084024;28;1002;-55
2022/06/22 00:51:29;;;;;;;;;;;;;;;23.56;42.65;100772.34;2084099;28;1068;-55
2022/06/22 00:52:37;;;;;;;;;;;;;;;23.53;42.67;100771.56;2083709;28;974;-55
2022/06/22 00:53:44;;;;;;;;;;;;;;;23.56;42.57;100775.03;2084059;28;989;-55
2022/06/22 00:54:45;;;;;;;;;;;;;;;23.56;42.11;100772.34;2083946;28;977;-55
2022/06/22 00:55:50;;;;;;;;;;;;;;;23.57;42.14;100774.09;2083957;28;1965;-56
2022/06/22 00:57:12;;;;;;;;;;;;;;;23.54;42.11;100775.13;2083899;28;935;-55
2022/06/22 00:58:32;;;;;;;;;;;;;;;23.54;42.23;100781.44;2075309;28;1469;-56
2022/06/22 00:59:32;;;;;;;;;;;;;;;23.57;42.63;100779.50;2077999;28;944;-55
2022/06/22 01:00:34;;;;;;;;;;;;;;;23.56;42.24;100777.75;2083331;28;992;-55
2022/06/22 01:01:44;;;;;;;;;;;;;;;23.55;42.02;100779.59;2083889;28;954;-55
2022/06/22 01:02:53;;;;;;;;;;;;;;;23.54;42.82;100777.84;2083818;28;994;-55
2022/06/22 01:04:07;;;;;;;;;;;;;;;23.54;42.61;100777.84;2084061;28;831;-55
2022/06/22 01:05:27;;;;;;;;;;;;;;;23.56;42.75;100775.03;2083842;28;1033;-56
2022/06/22 01:06:35;;;;;;;;;;;;;;;23.56;42.63;100780.44;2075037;28;1388;-55
2022/06/22 01:07:55;;;;;;;;;;;;;;;23.53;42.79;100774.28;2076371;28;883;-55
2022/06/22 01:09:05;;;;;;;;;;;;;;;23.54;42.28;100772.44;2083833;28;1001;-55
2022/06/22 01:10:05;;;;;;;;;;;;;;;23.53;41.94;100774.28;2083368;28;1056;-55
2022/06/22 01:12:16;;;;;;;;;;;;;;;23.52;42.71;100766.22;2083785;28;831;-55
2022/06/22 01:12:48;;;;;;;;;;;;;;;23.56;42.28;100764.22;2083677;28;1443;-55
2022/06/22 01:13:48;;;;;;;;;;;;;;;23.54;42.67;100767.03;2083788;28;871;-55
2022/06/22 01:15:04;;;;;;;;;;;;;;;23.53;42.58;100766.16;2083805;28;880;-55
2022/06/22 01:16:06;;;;;;;;;;;;;;;23.53;42.20;100765.25;2083773;28;1894;-55
2022/06/22 01:17:11;;;;;;;;;;;;;;;23.53;42.07;100771.56;2083730;28;760;-55
2022/06/22 01:18:20;;;;;;;;;;;;;;;23.54;42.36;100762.50;2083738;28;1063;-55
2022/06/22 01:19:29;;;;;;;;;;;;;;;23.54;42.87;100762.50;2083814;28;1041;-55
2022/06/22 01:20:48;;;;;;;;;;;;;;;23.49;42.01;100764.53;2083831;28;800;-55
2022/06/22 01:21:55;;;;;;;;;;;;;;;23.51;42.11;100765.34;2083790;28;994;-55
2022/06/22 01:23:01;;;;;;;;;;;;;;;23.51;42.81;100762.66;2074873;28;1331;-55
2022/06/22 01:24:01;;;;;;;;;;;;;;;23.53;42.48;100760.75;2075138;28;863;-55
2022/06/22 01:25:20;;;;;;;;;;;;;;;23.53;42.06;100762.56;2083698;28;832;-55
2022/06/22 01:26:26;;;;;;;;;;;;;;;23.50;42.33;100758.19;2083839;28;819;-55
2022/06/22 01:27:35;;;;;;;;;;;;;;;23.51;42.09;100757.25;2083018;28;1263;-55
2022/06/22 01:28:35;;;;;;;;;;;;;;;23.51;42.61;100757.25;2083692;28;776;-55
2022/06/22 01:29:45;;;;;;;;;;;;;;;23.52;42.39;100760.81;2083753;28;808;-56
2022/06/22 01:30:49;;;;;;;;;;;;;;;23.51;43.08;100764.47;2083815;28;733;-55
2022/06/22 01:32:00;;;;;;;;;;;;;;;23.48;42.91;100754.69;2083876;28;847;-55
2022/06/22 01:33:11;;;;;;;;;;;;;;;23.50;42.32;100758.19;2083675;28;1073;-55
2022/06/22 01:34:14;;;;;;;;;;;;;;;23.49;42.84;100753.72;2083725;28;1080;-55
2022/06/22 01:35:16;;;;;;;;;;;;;;;23.49;42.48;100752.84;2083539;28;1843;-55
2022/06/22 01:36:21;;;;;;;;;;;;;;;23.47;43.25;100752.03;2082957;28;1983;-56
2022/06/22 01:37:23;;;;;;;;;;;;;;;23.48;42.65;100751.97;2083501;28;2020;-55
2022/06/22 01:38:25;;;;;;;;;;;;;;;23.46;43.43;100748.47;2083576;28;777;-55
2022/06/22 01:39:25;;;;;;;;;;;;;;;23.46;43.47;100743.06;2083659;28;828;-55
2022/06/22 01:40:33;;;;;;;;;;;;;;;23.46;42.52;100753.88;2083541;28;1052;-55
2022/06/22 01:41:39;;;;;;;;;;;;;;;23.46;43.56;100750.28;2083787;28;1013;-55
2022/06/22 01:42:50;;;;;;;;;;;;;;;23.46;43.63;100748.47;2083561;28;871;-55
2022/06/22 01:44:01;;;;;;;;;;;;;;;23.47;43.62;100750.22;2083627;28;1001;-55
2022/06/22 01:45:09;;;;;;;;;;;;;;;23.45;43.61;100749.41;2083545;28;843;-55
2022/06/22 01:46:09;;;;;;;;;;;;;;;23.44;42.89;100753.06;2083643;28;891;-55
2022/06/22 01:47:25;;;;;;;;;;;;;;;23.43;43.94;100754.03;2083519;28;792;-55
2022/06/22 01:48:31;;;;;;;;;;;;;;;23.44;43.19;100755.78;2083483;28;919;-55
2022/06/22 01:49:33;;;;;;;;;;;;;;;23.40;44.04;100751.47;2083500;28;788;-55
2022/06/22 01:50:40;;;;;;;;;;;;;;;23.41;43.58;100755.91;2083417;28;1056;-55
2022/06/22 01:51:46;;;;;;;;;;;;;;;23.41;44.00;100757.72;2083571;28;804;-55
2022/06/22 01:52:53;;;;;;;;;;;;;;;23.40;44.15;100756.88;2083524;28;812;-55
2022/06/22 01:54:03;;;;;;;;;;;;;;;23.39;44.17;100760.50;2083551;28;875;-55
2022/06/22 01:55:09;;;;;;;;;;;;;;;23.38;43.58;100754.22;2083210;28;1043;-55
2022/06/22 01:56:15;;;;;;;;;;;;;;;23.38;43.53;100758.75;2083475;28;1906;-55
2022/06/22 01:57:34;;;;;;;;;;;;;;;23.39;43.68;100753.28;2083520;28;934;-55
2022/06/22 01:58:53;;;;;;;;;;;;;;;23.39;44.12;100755.97;2083401;28;820;-55
2022/06/22 01:59:53;;;;;;;;;;;;;;;23.40;43.86;100762.28;2074724;28;813;-55
2022/06/22 02:00:59;;;;;;;;;;;;;;;23.40;43.65;100754.16;2074759;28;876;-55
2022/06/22 02:02:01;;;;;;;;;;;;;;;23.42;43.68;100759.47;2083574;28;808;-56
2022/06/22 02:03:10;;;;;;;;;;;;;;;23.41;43.99;100760.44;2083246;28;1005;-56
2022/06/22 02:04:16;;;;;;;;;;;;;;;23.38;44.58;100758.75;2075308;28;926;-56
2022/06/22 02:05:26;;;;;;;;;;;;;;;23.37;44.45;100752.47;2075311;28;859;-56
2022/06/22 02:07:56;;;;;;;;;;;;;;;23.38;43.94;100758.75;2075440;28;766;-56
2022/06/22 02:09:00;;;;;;;;;;;;;;;23.36;44.80;100758.81;2075206;28;935;-55
2022/06/22 02:10:06;;;;;;;;;;;;;;;23.37;44.25;100762.41;2075300;28;852;-56
2022/06/22 02:11:09;;;;;;;;;;;;;;;23.36;43.96;100755.25;2075161;28;835;-56
2022/06/22 02:12:18;;;;;;;;;;;;;;;23.34;44.55;100758.00;2075675;28;1119;-55
2022/06/22 02:13:21;;;;;;;;;;;;;;;23.35;45.05;100762.47;2083382;28;784;-55
2022/06/22 02:14:25;;;;;;;;;;;;;;;23.36;45.00;100763.34;2083317;28;789;-55
2022/06/22 02:15:31;;;;;;;;;;;;;;;23.34;45.20;100770.66;2083289;28;1902;-55
2022/06/22 02:16:43;;;;;;;;;;;;;;;23.33;44.44;100768.91;2083338;28;923;-55
2022/06/22 02:17:44;;;;;;;;;;;;;;;23.34;45.22;100762.56;2083432;28;796;-55
2022/06/22 02:19:11;;;;;;;;;;;;;;;23.33;45.17;100764.34;2083269;28;989;-55
2022/06/22 02:20:29;;;;;;;;;;;;;;;23.34;45.12;100766.13;2080234;28;1311;-55
2022/06/22 02:21:45;;;;;;;;;;;;;;;23.34;45.00;100759.84;2082819;28;1313;-55
2022/06/22 02:22:50;;;;;;;;;;;;;;;23.33;45.36;100771.59;2083241;28;856;-55
2022/06/22 02:23:55;;;;;;;;;;;;;;;23.31;45.24;100766.25;2083351;28;780;-55
2022/06/22 02:24:56;;;;;;;;;;;;;;;23.31;45.33;100768.09;2074557;28;1804;-55
2022/06/22 02:26:16;;;;;;;;;;;;;;;23.31;45.38;100771.66;2074649;28;785;-55
2022/06/22 02:27:18;;;;;;;;;;;;;;;23.33;44.76;100769.75;2082600;28;1193;-55
2022/06/22 02:28:18;;;;;;;;;;;;;;;23.33;45.33;100760.78;2083207;28;986;-55
2022/06/22 02:29:21;;;;;;;;;;;;;;;23.34;45.30;100757.16;2083295;28;855;-55
2022/06/22 02:30:21;;;;;;;;;;;;;;;23.33;44.59;100761.66;2082713;28;1153;-55
2022/06/22 02:31:21;;;;;;;;;;;;;;;23.33;44.71;100768.91;2083335;28;1052;-55
2022/06/22 02:32:28;;;;;;;;;;;;;;;23.34;45.30;100757.16;2083196;28;992;-55
2022/06/22 02:33:29;;;;;;;;;;;;;;;23.31;44.88;100760.00;2083251;28;1064;-55
2022/06/22 02:34:31;;;;;;;;;;;;;;;23.30;45.09;100758.22;2083234;28;697;-55
2022/06/22 02:35:31;;;;;;;;;;;;;;;23.30;45.78;100766.34;2082699;28;1910;-55
2022/06/22 02:36:36;;;;;;;;;;;;;;;23.31;45.03;100760.00;2082918;28;1001;-55
2022/06/22 02:37:50;;;;;;;;;;;;;;;23.28;45.61;100761.00;2083091;28;1198;-55
2022/06/22 02:38:52;;;;;;;;;;;;;;;23.30;45.01;100767.19;2083225;28;866;-55
2022/06/22 02:39:55;;;;;;;;;;;;;;;23.30;45.79;100766.34;2082762;28;1294;-55
2022/06/22 02:44:54;;;;;;;;;;;;;;;23.32;45.83;100738.28;2083336;28;652;-55
2022/06/22 02:45:55;;;;;;;;;;;;;;;23.33;45.58;100747.28;2083237;28;990;-55
2022/06/22 02:46:57;;;;;;;;;;;;;;;23.32;45.82;100743.69;2083101;28;877;-55
2022/06/22 02:47:59;;;;;;;;;;;;;;;23.33;45.44;100744.59;2083226;28;1939;-55
2022/06/22 02:49:01;;;;;;;;;;;;;;;23.31;45.44;100743.78;2082474;28;1235;-55
2022/06/22 02:50:07;;;;;;;;;;;;;;;23.30;45.87;100752.81;2083139;28;871;-55
2022/06/22 02:51:16;;;;;;;;;;;;;;;23.30;45.72;100756.41;2083067;28;1021;-55
2022/06/22 02:52:17;;;;;;;;;;;;;;;23.29;45.94;100757.34;2083109;28;1052;-55
2022/06/22 02:53:24;;;;;;;;;;;;;;;23.29;46.13;100751.06;2083154;28;831;-55
2022/06/22 02:54:30;;;;;;;;;;;;;;;23.26;46.10;100749.38;2083068;28;805;-55
2022/06/22 02:55:33;;;;;;;;;;;;;;;23.28;46.28;100752.03;2083032;28;1965;-55
2022/06/22 02:56:39;;;;;;;;;;;;;;;23.27;45.79;100753.84;2083013;28;1001;-55
2022/06/22 02:57:51;;;;;;;;;;;;;;;23.27;45.70;100744.88;2082635;28;1067;-55
2022/06/22 02:58:52;;;;;;;;;;;;;;;23.27;46.17;100752.97;2074200;28;1282;-55
2022/06/22 02:59:53;;;;;;;;;;;;;;;23.27;45.65;100707.03;2074408;28;875;-55
2022/06/22 03:00:53;;;;;;;;;;;;;;;23.26;46.25;100697.16;2083047;28;997;-55
2022/06/22 03:01:53;;;;;;;;;;;;;;;23.27;45.86;100701.63;2074302;28;808;-56
2022/06/22 03:03:01;;;;;;;;;;;;;;;23.27;45.38;100704.31;2074278;28;907;-55
2022/06/22 03:04:07;;;;;;;;;;;;;;;23.27;45.89;100701.63;2083181;28;804;-55
2022/06/22 03:05:08;;;;;;;;;;;;;;;23.28;45.83;100695.28;2083149;28;808;-55
2022/06/22 03:06:10;;;;;;;;;;;;;;;23.27;46.32;100691.69;2074295;28;875;-55
2022/06/22 03:07:10;;;;;;;;;;;;;;;23.27;45.89;100729.50;2073895;28;1019;-55
2022/06/22 03:08:14;;;;;;;;;;;;;;;23.29;46.01;100786.22;2083072;28;982;-55
2022/06/22 03:09:15;;;;;;;;;;;;;;;23.26;46.31;100767.44;2083164;28;866;-55
2022/06/22 03:10:30;;;;;;;;;;;;;;;23.24;46.18;100749.47;2082976;28;1005;-55
2022/06/22 03:11:36;;;;;;;;;;;;;;;23.26;46.21;100743.97;2083094;28;1057;-55
2022/06/22 03:12:37;;;;;;;;;;;;;;;23.24;46.23;100733.25;2083042;28;760;-55
2022/06/22 03:13:44;;;;;;;;;;;;;;;23.26;45.99;100735.00;2082997;28;914;-55
2022/06/22 03:14:50;;;;;;;;;;;;;;;23.24;45.83;100738.66;2082995;28;872;-55
2022/06/22 03:15:51;;;;;;;;;;;;;;;23.24;45.82;100744.06;2082484;28;1886;-55
2022/06/22 03:17:03;;;;;;;;;;;;;;;23.24;46.21;100733.25;2082965;28;815;-55
2022/06/22 03:18:05;;;;;;;;;;;;;;;23.24;46.35;100725.13;2083045;28;808;-55
2022/06/22 03:19:06;;;;;;;;;;;;;;;23.25;46.60;100726.03;2083009;28;846;-55
2022/06/22 03:20:14;;;;;;;;;;;;;;;23.25;46.53;100734.13;2083066;28;997;-55
2022/06/22 03:21:14;;;;;;;;;;;;;;;23.24;46.36;100729.69;2083155;28;807;-55
2022/06/22 03:22:20;;;;;;;;;;;;;;;23.24;45.99;100732.38;2083002;28;990;-55
2022/06/22 03:23:20;;;;;;;;;;;;;;;23.24;46.07;100735.09;2083035;28;756;-55
2022/06/22 03:24:37;;;;;;;;;;;;;;;23.24;45.85;100737.78;2082942;28;998;-55
2022/06/22 03:25:37;;;;;;;;;;;;;;;23.23;45.84;100734.19;2082424;28;1131;-55
2022/06/22 03:26:39;;;;;;;;;;;;;;;23.24;46.67;100744.06;2082917;28;1009;-55
2022/06/22 03:27:42;;;;;;;;;;;;;;;23.24;46.07;100729.69;2082726;28;1213;-55
2022/06/22 03:28:46;;;;;;;;;;;;;;;23.23;46.45;100727.94;2082939;28;895;-55
2022/06/22 03:29:52;;;;;;;;;;;;;;;23.23;46.13;100733.34;2082998;28;962;-55
2022/06/22 03:30:57;;;;;;;;;;;;;;;23.22;46.85;100729.75;2082933;28;1052;-55
2022/06/22 03:32:02;;;;;;;;;;;;;;;23.21;46.67;100714.44;2083067;28;819;-55
2022/06/22 03:33:08;;;;;;;;;;;;;;;23.23;46.76;100717.97;2082854;28;1001;-55
2022/06/22 03:34:15;;;;;;;;;;;;;;;23.21;46.28;100729.78;2082480;28;1078;-55
2022/06/22 03:35:19;;;;;;;;;;;;;;;23.22;46.89;100727.03;2082991;28;825;-55
2022/06/22 03:36:23;;;;;;;;;;;;;;;23.21;46.33;100735.19;2082969;28;1910;-55
2022/06/22 03:37:26;;;;;;;;;;;;;;;23.21;46.17;100736.06;2082952;28;985;-55
2022/06/22 03:38:29;;;;;;;;;;;;;;;23.22;46.46;100747.75;2082895;28;815;-55
2022/06/22 03:39:32;;;;;;;;;;;;;;;23.20;46.17;100747.81;2082963;28;860;-55
2022/06/22 03:40:38;;;;;;;;;;;;;;;23.20;46.58;100744.25;2082859;28;831;-55
2022/06/22 03:41:43;;;;;;;;;;;;;;;23.21;46.42;100756.81;2082920;28;974;-56
2022/06/22 03:42:46;;;;;;;;;;;;;;;23.20;46.91;100749.66;2082918;28;982;-56
2022/06/22 03:43:52;;;;;;;;;;;;;;;23.20;46.26;100745.09;2073537;28;1479;-55
2022/06/22 03:44:55;;;;;;;;;;;;;;;23.20;46.33;100747.81;2074815;28;1056;-55
2022/06/22 03:46:16;;;;;;;;;;;;;;;23.18;46.64;100736.19;2074104;28;1468;-55
2022/06/22 03:47:34;;;;;;;;;;;;;;;23.20;46.44;100730.75;2077975;28;780;-55
2022/06/22 03:48:40;;;;;;;;;;;;;;;23.20;47.07;100733.44;2084427;28;994;-55
2022/06/22 03:49:53;;;;;;;;;;;;;;;23.20;47.08;100738.84;2084481;28;781;-56
2022/06/22 03:50:53;;;;;;;;;;;;;;;23.18;47.03;100736.19;2084481;28;848;-55
2022/06/22 03:51:57;;;;;;;;;;;;;;;23.20;46.99;100741.53;2084451;28;997;-55
2022/06/22 03:53:32;;;;;;;;;;;;;;;23.19;47.17;100754.16;2083861;28;1000;-55
2022/06/22 03:54:38;;;;;;;;;;;;;;;23.19;46.72;100756.00;2059020;28;1083;-55
2022/06/22 03:55:42;;;;;;;;;;;;;;;23.19;46.39;100758.72;2059118;28;1953;-55
2022/06/22 03:56:49;;;;;;;;;;;;;;;23.18;47.08;100765.91;2059042;28;926;-55
2022/06/22 03:57:52;;;;;;;;;;;;;;;23.18;46.72;100762.34;2059232;28;793;-55
2022/06/22 03:58:53;;;;;;;;;;;;;;;23.18;47.04;100757.81;2059015;28;851;-55
2022/06/22 03:59:55;;;;;;;;;;;;;;;23.19;47.05;100753.31;2059068;28;943;-55
2022/06/22 04:00:56;;;;;;;;;;;;;;;23.18;47.04;100763.22;2059070;28;816;-55
2022/06/22 04:01:57;;;;;;;;;;;;;;;23.18;47.04;100749.69;2058503;28;1173;-55
2022/06/22 04:02:57;;;;;;;;;;;;;;;24.43;44.45;100744.69;2059019;28;985;-55
2022/06/22 04:03:58;;;;;;;;;;;;;;;25.46;41.51;100748.31;2059109;28;867;-55
2022/06/22 04:04:58;;;;;;;;;;;;;;;26.17;39.69;100743.47;2059044;28;975;-54
2022/06/22 04:05:59;;;;;;;;;;;;;;;26.71;38.83;100745.66;2059143;28;765;-55
2022/06/22 04:06:59;;;;;;;;;;;;;;;27.12;37.45;100743.19;2058976;28;875;-54
2022/06/22 04:08:00;;;;;;;;;;;;;;;27.51;36.97;100744.38;2059099;28;959;-54
2022/06/22 04:09:02;;;;;;;;;;;;;;;27.69;36.72;100745.03;2058966;28;939;-54
2022/06/22 04:10:04;;;;;;;;;;;;;;;27.88;35.66;100747.41;2059052;28;962;-55
2022/06/22 04:11:04;;;;;;;;;;;;;;;28.15;35.69;100741.16;2058379;28;1009;-55
2022/06/22 04:12:09;;;;;;;;;;;;;;;28.51;34.89;100744.19;2059024;28;793;-55
2022/06/22 04:13:13;;;;;;;;;;;;;;;28.66;34.86;100742.25;2050859;29;896;-55
2022/06/22 04:14:13;;;;;;;;;;;;;;;29.07;33.82;100745.78;2051360;28;987;-55
2022/06/22 04:15:23;;;;;;;;;;;;;;;29.22;33.93;100741.09;2059012;28;793;-55
2022/06/22 04:16:33;;;;;;;;;;;;;;;29.39;33.55;100738.03;2058839;28;1958;-55
2022/06/22 04:17:37;;;;;;;;;;;;;;;29.95;32.36;100733.94;2059016;28;1057;-55
2022/06/22 04:18:40;;;;;;;;;;;;;;;30.34;32.09;100733.75;2058954;28;824;-55
2022/06/22 04:19:47;;;;;;;;;;;;;;;30.47;31.37;100728.22;2059017;28;1007;-55
2022/06/22 04:20:57;;;;;;;;;;;;;;;30.61;31.41;100730.81;2058362;28;1163;-55
2022/06/22 04:22:02;;;;;;;;;;;;;;;30.63;30.91;100729.78;2058960;28;836;-55
2022/06/22 04:23:03;;;;;;;;;;;;;;;30.77;31.04;100724.09;2058908;28;903;-56
2022/06/22 04:24:14;;;;;;;;;;;;;;;31.35;29.95;100725.91;2058976;28;962;-55
2022/06/22 04:25:22;;;;;;;;;;;;;;;31.44;29.95;100727.03;2058934;28;780;-55
2022/06/22 04:26:25;;;;;;;;;;;;;;;31.91;29.17;100722.25;2058903;28;922;-55
2022/06/22 04:27:25;;;;;;;;;;;;;;;32.20;28.55;100724.34;2058773;28;1206;-55
2022/06/22 04:28:27;;;;;;;;;;;;;;;32.13;28.86;100722.28;2058901;28;993;-56
2022/06/22 04:29:34;;;;;;;;;;;;;;;32.04;28.60;100715.72;2076607;28;979;-55
2022/06/22 04:30:37;;;;;;;;;;;;;;;32.30;28.30;100716.28;2084117;28;784;-55
2022/06/22 04:31:43;;;;;;;;;;;;;;;32.50;27.97;100716.41;2084195;28;1056;-56
2022/06/22 04:32:48;;;;;;;;;;;;;;;32.77;27.54;100715.00;2084111;28;998;-56
2022/06/22 04:33:52;;;;;;;;;;;;;;;32.94;27.41;100719.91;2084234;28;1056;-56
2022/06/22 04:35:01;;;;;;;;;;;;;;;32.73;27.48;100719.88;2084076;28;764;-56
2022/06/22 04:36:01;;;;;;;;;;;;;;;32.65;27.38;100720.56;2084141;28;1883;-56
2022/06/22 04:37:06;;;;;;;;;;;;;;;32.77;27.53;100720.47;2084014;28;1223;-56
2022/06/22 04:38:20;;;;;;;;;;;;;;;32.79;27.05;100713.84;2084151;28;804;-56
2022/06/22 04:39:23;;;;;;;;;;;;;;;32.92;26.76;100723.78;2083613;28;1056;-56
2022/06/22 04:40:43;;;;;;;;;;;;;;;33.02;26.81;100723.81;2084039;28;949;-56
2022/06/22 04:41:43;;;;;;;;;;;;;;;33.21;26.82;100731.28;2074599;28;1683;-56
2022/06/22 04:42:43;;;;;;;;;;;;;;;33.00;27.00;100729.44;2075280;28;788;-56
2022/06/22 04:43:44;;;;;;;;;;;;;;;33.02;26.80;100732.03;2084034;28;816;-56
2022/06/22 04:44:46;;;;;;;;;;;;;;;33.20;26.80;100721.31;2084005;28;1052;-56
2022/06/22 04:45:47;;;;;;;;;;;;;;;33.25;26.38;100724.53;2084067;28;827;-56
2022/06/22 04:46:49;;;;;;;;;;;;;;;33.69;26.03;100721.47;2083988;28;776;-56
2022/06/22 04:47:49;;;;;;;;;;;;;;;33.65;26.09;100728.25;2084050;28;986;-56
2022/06/22 04:48:50;;;;;;;;;;;;;;;33.66;26.43;100722.66;2083427;28;1040;-56
2022/06/22 04:50:11;;;;;;;;;;;;;;;33.92;25.39;100726.78;2075239;28;914;-56
2022/06/22 04:51:14;;;;;;;;;;;;;;;33.49;26.31;100728.81;2078093;28;871;-56
2022/06/22 04:52:18;;;;;;;;;;;;;;;33.66;26.01;100727.25;2084030;28;784;-56
2022/06/22 04:53:25;;;;;;;;;;;;;;;33.62;26.36;100736.78;2075225;28;1347;-56
2022/06/22 04:54:33;;;;;;;;;;;;;;;33.51;26.16;100746.91;2076167;28;973;-56
2022/06/22 04:55:38;;;;;;;;;;;;;;;33.53;26.21;100736.66;2083886;28;1882;-56
2022/06/22 04:56:41;;;;;;;;;;;;;;;33.61;26.18;100741.44;2084077;28;854;-56
2022/06/22 04:57:42;;;;;;;;;;;;;;;33.55;26.37;100737.38;2083466;28;1025;-56
2022/06/22 04:58:45;;;;;;;;;;;;;;;33.88;25.64;100739.03;2082902;28;986;-55
2022/06/22 04:59:46;;;;;;;;;;;;;;;33.77;25.85;100740.88;2083904;28;942;-56
2022/06/22 05:00:46;;;;;;;;;;;;;;;33.56;25.93;100741.81;2084118;28;895;-56
2022/06/22 05:01:49;;;;;;;;;;;;;;;33.65;25.86;100745.63;2075059;28;1149;-56
2022/06/22 05:03:03;;;;;;;;;;;;;;;33.48;26.17;100758.16;2075456;28;765;-56
2022/06/22 05:04:05;;;;;;;;;;;;;;;33.58;26.15;100757.28;2083975;28;985;-56
2022/06/22 05:05:09;;;;;;;;;;;;;;;33.78;25.95;100745.34;2083832;28;780;-55
2022/06/22 05:06:14;;;;;;;;;;;;;;;33.76;25.81;100752.88;2083947;28;986;-56
2022/06/22 05:07:34;;;;;;;;;;;;;;;34.03;25.43;100745.88;2083442;28;1024;-56
2022/06/22 05:08:39;;;;;;;;;;;;;;;33.99;25.83;100747.16;2083819;28;804;-56
2022/06/22 05:09:48;;;;;;;;;;;;;;;33.58;26.00;100760.91;2083895;28;800;-56
2022/06/22 05:11:12;;;;;;;;;;;;;;;33.85;25.70;100746.53;2083836;28;990;-56
2022/06/22 05:12:20;;;;;;;;;;;;;;;33.96;25.47;100758.44;2083927;28;788;-56
2022/06/22 05:13:24;;;;;;;;;;;;;;;34.03;25.23;100761.47;2083860;28;887;-56
2022/06/22 05:14:27;;;;;;;;;;;;;;;33.94;25.62;100754.97;2083766;28;914;-56
2022/06/22 05:15:38;;;;;;;;;;;;;;;33.90;25.40;100748.00;2083689;28;1953;-56
2022/06/22 05:16:38;;;;;;;;;;;;;;;33.85;25.74;100748.44;2083246;28;1039;-56
2022/06/22 05:17:39;;;;;;;;;;;;;;;33.99;25.25;100748.03;2083823;28;847;-56
2022/06/22 05:18:40;;;;;;;;;;;;;;;33.92;25.50;100752.34;2083780;28;883;-56
2022/06/22 05:19:48;;;;;;;;;;;;;;;34.09;25.28;100744.44;2083838;28;902;-56
2022/06/22 05:20:53;;;;;;;;;;;;;;;34.00;25.36;100747.00;2083894;28;741;-56
2022/06/22 05:21:57;;;;;;;;;;;;;;;34.10;25.31;100748.91;2083853;28;800;-56
2022/06/22 05:23:00;;;;;;;;;;;;;;;34.08;25.46;100749.06;2083735;28;986;-56
2022/06/22 05:24:04;;;;;;;;;;;;;;;34.22;25.70;100741.38;2083798;28;797;-56
2022/06/22 05:25:07;;;;;;;;;;;;;;;34.19;25.38;100737.06;2083720;28;970;-56
2022/06/22 05:26:08;;;;;;;;;;;;;;;34.22;24.96;100738.63;2083170;28;992;-56
2022/06/22 05:27:11;;;;;;;;;;;;;;;34.26;24.96;100740.09;2074865;28;1176;-56
2022/06/22 05:28:16;;;;;;;;;;;;;;;34.24;24.99;100742.09;2075188;28;1224;-56
2022/06/22 05:29:19;;;;;;;;;;;;;;;34.25;25.00;100741.09;2083816;28;811;-56
2022/06/22 05:30:19;;;;;;;;;;;;;;;34.24;25.15;100742.09;2083684;28;819;-56
2022/06/22 05:31:27;;;;;;;;;;;;;;;34.10;25.00;100747.03;2083746;28;808;-56
2022/06/22 05:32:30;;;;;;;;;;;;;;;34.06;25.30;100745.59;2083665;28;985;-56
2022/06/22 05:33:30;;;;;;;;;;;;;;;34.14;25.25;100747.63;2083707;28;789;-56
2022/06/22 05:34:36;;;;;;;;;;;;;;;34.39;24.97;100743.41;2083595;28;990;-56
2022/06/22 05:35:39;;;;;;;;;;;;;;;34.25;25.15;100743.84;2083092;28;1906;-56
2022/06/22 05:36:42;;;;;;;;;;;;;;;33.99;25.25;100744.44;2083584;28;994;-56
2022/06/22 05:37:47;;;;;;;;;;;;;;;34.09;25.15;100749.91;2083591;28;1038;-56
2022/06/22 05:38:50;;;;;;;;;;;;;;;34.03;24.95;100734.00;2083696;28;875;-56
2022/06/22 05:39:51;;;;;;;;;;;;;;;34.12;24.80;100746.88;2083703;28;1041;-56
2022/06/22 05:40:53;;;;;;;;;;;;;;;34.20;24.82;100738.78;2083590;28;930;-56
2022/06/22 05:41:53;;;;;;;;;;;;;;;34.20;24.46;100741.53;2083655;28;899;-55
2022/06/22 05:42:54;;;;;;;;;;;;;;;34.03;24.91;100743.13;2083557;28;954;-56
2022/06/22 05:43:57;;;;;;;;;;;;;;;34.19;24.36;100738.94;2083606;28;1077;-56
2022/06/22 05:44:58;;;;;;;;;;;;;;;34.19;24.64;100739.81;2083036;28;976;-56
2022/06/22 05:46:02;;;;;;;;;;;;;;;34.18;24.35;100732.56;2083634;28;876;-56
2022/06/22 05:47:03;;;;;;;;;;;;;;;34.20;24.41;100732.41;2083544;28;878;-56
2022/06/22 05:48:04;;;;;;;;;;;;;;;34.05;23.87;100738.38;2083596;28;1049;-56
2022/06/22 05:49:05;;;;;;;;;;;;;;;33.81;24.75;100731.34;2074672;28;1372;-56
2022/06/22 05:50:19;;;;;;;;;;;;;;;34.01;24.22;100734.16;2074947;28;1064;-56